sensor_id;sensor_type;location;lat;lon;timestamp;P1;durP1;ratioP1;P2;durP2;ratioP2
33987;SDS011;37428;53.580;-1.666;2023-04-28T00:00:11;21.48;;;16.52;;
33987;SDS011;37428;53.580;-1.666;2023-04-28T00:03:15;27.10;;;20.83;;
33987;SDS011;37428;53.580;-1.666;2023-04-28T00:06:17;25.15;;;17.92;;
33987;SDS011;37428;53.580;-1.666;2023-04-28T00:09:19;20.95;;;16.08;;
33987;SDS011;37428;53.580;-1.666;2023-04-28T00:12:22;21.70;;;15.88;;
33987;SDS011;37428;53.580;-1.666;2023-04-28T00:15:25;22.73;;;18.38;;
33987;SDS011;37428;53.580;-1.666;2023-04-28T00:18:28;25.80;;;19.67;;
33987;SDS011;37428;53.580;-1.666;2023-04-28T00:21:32;24.58;;;18.02;;
33987;SDS011;37428;53.580;-1.666;2023-04-28T00:24:34;24.52;;;19.98;;
33987;SDS011;37428;53.580;-1.666;2023-04-28T00:27:36;22.20;;;16.92;;
33987;SDS011;37428;53.580;-1.666;2023-04-28T00:30:38;21.38;;;18.38;;
33987;SDS011;37428;53.580;-1.666;2023-04-28T00:33:42;23.05;;;16.25;;
33987;SDS011;37428;53.580;-1.666;2023-04-28T00:36:45;19.67;;;15.98;;
33987;SDS011;37428;53.580;-1.666;2023-04-28T00:39:47;23.13;;;17.90;;
33987;SDS011;37428;53.580;-1.666;2023-04-28T00:42:49;21.77;;;17.58;;
33987;SDS011;37428;53.580;-1.666;2023-04-28T00:45:51;24.38;;;19.05;;
33987;SDS011;37428;53.580;-1.666;2023-04-28T00:48:55;33.00;;;22.27;;
33987;SDS011;37428;53.580;-1.666;2023-04-28T00:51:57;22.35;;;18.85;;
33987;SDS011;37428;53.580;-1.666;2023-04-28T00:55:03;21.58;;;15.45;;
33987;SDS011;37428;53.580;-1.666;2023-04-28T00:58:06;23.45;;;18.58;;
33987;SDS011;37428;53.580;-1.666;2023-04-28T01:04:12;15.15;;;13.50;;
33987;SDS011;37428;53.580;-1.666;2023-04-28T01:07:14;20.77;;;15.75;;
33987;SDS011;37428;53.580;-1.666;2023-04-28T01:10:16;20.02;;;16.30;;
33987;SDS011;37428;53.580;-1.666;2023-04-28T01:13:18;18.88;;;14.93;;
33987;SDS011;37428;53.580;-1.666;2023-04-28T01:16:21;17.50;;;15.65;;
33987;SDS011;37428;53.580;-1.666;2023-04-28T01:19:26;18.63;;;14.43;;
33987;SDS011;37428;53.580;-1.666;2023-04-28T01:22:28;20.42;;;15.27;;
33987;SDS011;37428;53.580;-1.666;2023-04-28T01:25:32;19.92;;;15.23;;
33987;SDS011;37428;53.580;-1.666;2023-04-28T01:28:34;21.98;;;15.45;;
33987;SDS011;37428;53.580;-1.666;2023-04-28T01:31:36;19.42;;;15.95;;
33987;SDS011;37428;53.580;-1.666;2023-04-28T01:34:38;17.35;;;14.38;;
33987;SDS011;37428;53.580;-1.666;2023-04-28T01:37:40;17.05;;;14.50;;
33987;SDS011;37428;53.580;-1.666;2023-04-28T01:40:44;23.65;;;18.02;;
33987;SDS011;37428;53.580;-1.666;2023-04-28T01:43:46;17.40;;;14.98;;
33987;SDS011;37428;53.580;-1.666;2023-04-28T01:46:48;18.92;;;15.32;;
33987;SDS011;37428;53.580;-1.666;2023-04-28T01:49:50;16.73;;;14.25;;
33987;SDS011;37428;53.580;-1.666;2023-04-28T01:52:52;18.92;;;15.52;;
33987;SDS011;37428;53.580;-1.666;2023-04-28T01:55:56;18.67;;;13.63;;
33987;SDS011;37428;53.580;-1.666;2023-04-28T01:58:58;20.45;;;17.27;;
33987;SDS011;37428;53.580;-1.666;2023-04-28T02:02:00;20.17;;;16.00;;
33987;SDS011;37428;53.580;-1.666;2023-04-28T02:05:02;19.90;;;15.88;;
33987;SDS011;37428;53.580;-1.666;2023-04-28T02:08:05;23.33;;;18.42;;
33987;SDS011;37428;53.580;-1.666;2023-04-28T02:11:08;20.80;;;17.08;;
33987;SDS011;37428;53.580;-1.666;2023-04-28T02:14:10;23.83;;;17.58;;
33987;SDS011;37428;53.580;-1.666;2023-04-28T02:17:12;24.58;;;18.23;;
33987;SDS011;37428;53.580;-1.666;2023-04-28T02:20:14;23.60;;;19.85;;
33987;SDS011;37428;53.580;-1.666;2023-04-28T02:23:16;29.90;;;18.50;;
33987;SDS011;37428;53.580;-1.666;2023-04-28T02:26:20;29.75;;;21.98;;
33987;SDS011;37428;53.580;-1.666;2023-04-28T02:29:23;25.63;;;20.25;;
33987;SDS011;37428;53.580;-1.666;2023-04-28T02:32:26;24.52;;;19.55;;
33987;SDS011;37428;53.580;-1.666;2023-04-28T02:35:28;27.98;;;20.92;;
33987;SDS011;37428;53.580;-1.666;2023-04-28T02:38:30;26.75;;;21.30;;
33987;SDS011;37428;53.580;-1.666;2023-04-28T02:41:34;23.83;;;19.52;;
33987;SDS011;37428;53.580;-1.666;2023-04-28T02:44:36;25.95;;;20.42;;
33987;SDS011;37428;53.580;-1.666;2023-04-28T02:47:38;23.85;;;20.35;;
33987;SDS011;37428;53.580;-1.666;2023-04-28T02:50:40;25.77;;;20.95;;
33987;SDS011;37428;53.580;-1.666;2023-04-28T02:53:42;31.55;;;23.02;;
33987;SDS011;37428;53.580;-1.666;2023-04-28T02:56:46;28.65;;;21.23;;
33987;SDS011;37428;53.580;-1.666;2023-04-28T02:59:48;30.98;;;23.33;;
33987;SDS011;37428;53.580;-1.666;2023-04-28T03:02:50;28.35;;;21.00;;
33987;SDS011;37428;53.580;-1.666;2023-04-28T03:05:52;27.85;;;20.83;;
33987;SDS011;37428;53.580;-1.666;2023-04-28T03:08:55;35.17;;;25.05;;
33987;SDS011;37428;53.580;-1.666;2023-04-28T03:11:59;29.02;;;23.83;;
33987;SDS011;37428;53.580;-1.666;2023-04-28T03:15:02;30.23;;;21.27;;
33987;SDS011;37428;53.580;-1.666;2023-04-28T03:18:07;32.05;;;25.77;;
33987;SDS011;37428;53.580;-1.666;2023-04-28T03:21:09;32.45;;;24.65;;
33987;SDS011;37428;53.580;-1.666;2023-04-28T03:24:11;30.27;;;23.77;;
33987;SDS011;37428;53.580;-1.666;2023-04-28T03:27:15;31.77;;;24.70;;
33987;SDS011;37428;53.580;-1.666;2023-04-28T03:30:17;30.58;;;23.92;;
33987;SDS011;37428;53.580;-1.666;2023-04-28T03:33:19;48.97;;;24.77;;
33987;SDS011;37428;53.580;-1.666;2023-04-28T03:36:21;30.13;;;23.30;;
33987;SDS011;37428;53.580;-1.666;2023-04-28T03:39:23;33.05;;;23.92;;
33987;SDS011;37428;53.580;-1.666;2023-04-28T03:42:27;30.63;;;24.25;;
33987;SDS011;37428;53.580;-1.666;2023-04-28T03:45:29;51.75;;;24.05;;
33987;SDS011;37428;53.580;-1.666;2023-04-28T03:48:31;40.42;;;24.88;;
33987;SDS011;37428;53.580;-1.666;2023-04-28T03:51:33;197.70;;;38.17;;
33987;SDS011;37428;53.580;-1.666;2023-04-28T03:54:35;31.10;;;22.83;;
33987;SDS011;37428;53.580;-1.666;2023-04-28T03:57:39;59.58;;;21.67;;
33987;SDS011;37428;53.580;-1.666;2023-04-28T04:00:41;40.47;;;22.48;;
33987;SDS011;37428;53.580;-1.666;2023-04-28T04:03:43;84.70;;;24.38;;
33987;SDS011;37428;53.580;-1.666;2023-04-28T04:06:45;107.05;;;24.20;;
33987;SDS011;37428;53.580;-1.666;2023-04-28T04:09:47;73.45;;;26.27;;
33987;SDS011;37428;53.580;-1.666;2023-04-28T04:12:52;53.25;;;25.08;;
33987;SDS011;37428;53.580;-1.666;2023-04-28T04:15:54;27.48;;;21.67;;
33987;SDS011;37428;53.580;-1.666;2023-04-28T04:18:56;38.78;;;23.02;;
33987;SDS011;37428;53.580;-1.666;2023-04-28T04:21:58;50.63;;;25.50;;
33987;SDS011;37428;53.580;-1.666;2023-04-28T04:25:00;27.52;;;22.08;;
33987;SDS011;37428;53.580;-1.666;2023-04-28T04:28:04;30.30;;;22.10;;
33987;SDS011;37428;53.580;-1.666;2023-04-28T04:31:06;30.95;;;22.00;;
33987;SDS011;37428;53.580;-1.666;2023-04-28T04:34:08;42.15;;;22.63;;
33987;SDS011;37428;53.580;-1.666;2023-04-28T04:37:11;31.85;;;23.35;;
33987;SDS011;37428;53.580;-1.666;2023-04-28T04:40:13;40.13;;;22.30;;
33987;SDS011;37428;53.580;-1.666;2023-04-28T04:43:17;44.10;;;23.60;;
33987;SDS011;37428;53.580;-1.666;2023-04-28T04:46:19;49.95;;;22.27;;
33987;SDS011;37428;53.580;-1.666;2023-04-28T04:49:22;53.40;;;24.50;;
33987;SDS011;37428;53.580;-1.666;2023-04-28T04:52:24;75.82;;;25.40;;
33987;SDS011;37428;53.580;-1.666;2023-04-28T04:55:26;222.07;;;41.22;;
33987;SDS011;37428;53.580;-1.666;2023-04-28T04:58:29;37.92;;;27.08;;
33987;SDS011;37428;53.580;-1.666;2023-04-28T05:01:31;42.97;;;28.75;;
33987;SDS011;37428;53.580;-1.666;2023-04-28T05:04:34;58.95;;;28.80;;
33987;SDS011;37428;53.580;-1.666;2023-04-28T05:07:36;167.13;;;35.13;;
33987;SDS011;37428;53.580;-1.666;2023-04-28T05:10:38;121.97;;;33.75;;
33987;SDS011;37428;53.580;-1.666;2023-04-28T05:13:42;50.60;;;28.50;;
33987;SDS011;37428;53.580;-1.666;2023-04-28T05:16:44;57.83;;;29.67;;
33987;SDS011;37428;53.580;-1.666;2023-04-28T05:19:46;44.05;;;29.35;;
33987;SDS011;37428;53.580;-1.666;2023-04-28T05:22:48;46.22;;;28.75;;
33987;SDS011;37428;53.580;-1.666;2023-04-28T05:25:50;265.23;;;44.33;;
33987;SDS011;37428;53.580;-1.666;2023-04-28T05:28:54;185.80;;;39.60;;
33987;SDS011;37428;53.580;-1.666;2023-04-28T05:31:56;243.00;;;45.03;;
33987;SDS011;37428;53.580;-1.666;2023-04-28T05:34:58;45.80;;;30.73;;
33987;SDS011;37428;53.580;-1.666;2023-04-28T05:38:00;279.63;;;43.42;;
33987;SDS011;37428;53.580;-1.666;2023-04-28T05:41:02;60.08;;;32.78;;
33987;SDS011;37428;53.580;-1.666;2023-04-28T05:44:06;83.07;;;34.03;;
33987;SDS011;37428;53.580;-1.666;2023-04-28T05:47:08;396.08;;;53.58;;
33987;SDS011;37428;53.580;-1.666;2023-04-28T05:50:10;281.05;;;44.55;;
33987;SDS011;37428;53.580;-1.666;2023-04-28T05:53:12;321.40;;;45.83;;
33987;SDS011;37428;53.580;-1.666;2023-04-28T05:56:14;61.80;;;31.55;;
33987;SDS011;37428;53.580;-1.666;2023-04-28T05:59:18;297.58;;;42.00;;
33987;SDS011;37428;53.580;-1.666;2023-04-28T06:02:20;62.17;;;29.25;;
33987;SDS011;37428;53.580;-1.666;2023-04-28T06:05:23;514.88;;;52.00;;
33987;SDS011;37428;53.580;-1.666;2023-04-28T06:08:25;63.33;;;27.20;;
33987;SDS011;37428;53.580;-1.666;2023-04-28T06:11:27;195.88;;;36.40;;
33987;SDS011;37428;53.580;-1.666;2023-04-28T06:14:31;48.67;;;26.40;;
33987;SDS011;37428;53.580;-1.666;2023-04-28T06:17:34;99.05;;;27.83;;
33987;SDS011;37428;53.580;-1.666;2023-04-28T06:20:36;61.47;;;25.17;;
33987;SDS011;37428;53.580;-1.666;2023-04-28T06:23:38;75.13;;;29.92;;
33987;SDS011;37428;53.580;-1.666;2023-04-28T06:26:41;272.00;;;38.47;;
33987;SDS011;37428;53.580;-1.666;2023-04-28T06:29:44;238.23;;;40.20;;
33987;SDS011;37428;53.580;-1.666;2023-04-28T06:32:46;198.77;;;35.95;;
33987;SDS011;37428;53.580;-1.666;2023-04-28T06:35:49;176.05;;;33.47;;
33987;SDS011;37428;53.580;-1.666;2023-04-28T06:41:53;55.50;;;22.33;;
33987;SDS011;37428;53.580;-1.666;2023-04-28T06:44:58;43.00;;;21.50;;
33987;SDS011;37428;53.580;-1.666;2023-04-28T06:48:00;46.55;;;22.48;;
33987;SDS011;37428;53.580;-1.666;2023-04-28T06:51:02;54.38;;;21.85;;
33987;SDS011;37428;53.580;-1.666;2023-04-28T06:54:04;30.65;;;17.17;;
33987;SDS011;37428;53.580;-1.666;2023-04-28T06:57:07;46.08;;;20.83;;
33987;SDS011;37428;53.580;-1.666;2023-04-28T07:00:11;104.72;;;25.88;;
33987;SDS011;37428;53.580;-1.666;2023-04-28T07:03:14;53.25;;;21.65;;
33987;SDS011;37428;53.580;-1.666;2023-04-28T07:06:16;33.67;;;18.50;;
33987;SDS011;37428;53.580;-1.666;2023-04-28T07:09:19;36.90;;;19.27;;
33987;SDS011;37428;53.580;-1.666;2023-04-28T07:12:21;76.85;;;25.75;;
33987;SDS011;37428;53.580;-1.666;2023-04-28T07:15:24;58.65;;;20.55;;
33987;SDS011;37428;53.580;-1.666;2023-04-28T07:18:27;29.60;;;17.52;;
33987;SDS011;37428;53.580;-1.666;2023-04-28T07:21:29;35.40;;;17.77;;
33987;SDS011;37428;53.580;-1.666;2023-04-28T07:24:31;32.10;;;16.77;;
33987;SDS011;37428;53.580;-1.666;2023-04-28T07:27:33;61.47;;;22.23;;
33987;SDS011;37428;53.580;-1.666;2023-04-28T07:30:37;43.65;;;20.77;;
33987;SDS011;37428;53.580;-1.666;2023-04-28T07:33:39;34.33;;;18.23;;
33987;SDS011;37428;53.580;-1.666;2023-04-28T07:36:41;38.20;;;20.02;;
33987;SDS011;37428;53.580;-1.666;2023-04-28T07:39:43;26.67;;;17.48;;
33987;SDS011;37428;53.580;-1.666;2023-04-28T07:42:46;40.00;;;20.50;;
33987;SDS011;37428;53.580;-1.666;2023-04-28T07:45:50;45.67;;;21.58;;
33987;SDS011;37428;53.580;-1.666;2023-04-28T07:48:52;31.35;;;18.98;;
33987;SDS011;37428;53.580;-1.666;2023-04-28T07:54:57;47.10;;;22.25;;
33987;SDS011;37428;53.580;-1.666;2023-04-28T07:57:59;30.85;;;19.88;;
33987;SDS011;37428;53.580;-1.666;2023-04-28T08:01:02;31.50;;;18.13;;
33987;SDS011;37428;53.580;-1.666;2023-04-28T08:04:05;30.30;;;18.92;;
33987;SDS011;37428;53.580;-1.666;2023-04-28T08:07:07;25.83;;;18.60;;
33987;SDS011;37428;53.580;-1.666;2023-04-28T08:10:09;24.05;;;17.05;;
33987;SDS011;37428;53.580;-1.666;2023-04-28T08:13:12;34.13;;;20.35;;
33987;SDS011;37428;53.580;-1.666;2023-04-28T08:16:17;41.20;;;22.17;;
33987;SDS011;37428;53.580;-1.666;2023-04-28T08:19:19;44.03;;;23.15;;
33987;SDS011;37428;53.580;-1.666;2023-04-28T08:25:23;39.58;;;22.10;;
33987;SDS011;37428;53.580;-1.666;2023-04-28T08:28:26;27.08;;;18.95;;
33987;SDS011;37428;53.580;-1.666;2023-04-28T08:31:29;32.90;;;21.27;;
33987;SDS011;37428;53.580;-1.666;2023-04-28T08:34:32;31.73;;;20.98;;
33987;SDS011;37428;53.580;-1.666;2023-04-28T08:37:34;21.48;;;17.05;;
33987;SDS011;37428;53.580;-1.666;2023-04-28T08:40:36;21.77;;;17.30;;
33987;SDS011;37428;53.580;-1.666;2023-04-28T08:43:38;21.23;;;16.90;;
33987;SDS011;37428;53.580;-1.666;2023-04-28T08:46:43;27.58;;;18.40;;
33987;SDS011;37428;53.580;-1.666;2023-04-28T08:49:46;28.25;;;18.70;;
33987;SDS011;37428;53.580;-1.666;2023-04-28T08:52:49;29.75;;;20.77;;
33987;SDS011;37428;53.580;-1.666;2023-04-28T08:55:53;23.02;;;17.88;;
33987;SDS011;37428;53.580;-1.666;2023-04-28T08:58:56;24.10;;;17.95;;
33987;SDS011;37428;53.580;-1.666;2023-04-28T09:02:03;18.15;;;16.02;;
33987;SDS011;37428;53.580;-1.666;2023-04-28T09:05:05;28.77;;;20.35;;
33987;SDS011;37428;53.580;-1.666;2023-04-28T09:08:08;23.73;;;18.92;;
33987;SDS011;37428;53.580;-1.666;2023-04-28T09:11:11;30.92;;;21.75;;
33987;SDS011;37428;53.580;-1.666;2023-04-28T09:14:13;33.00;;;22.95;;
33987;SDS011;37428;53.580;-1.666;2023-04-28T09:17:17;32.30;;;22.95;;
33987;SDS011;37428;53.580;-1.666;2023-04-28T09:20:19;28.33;;;20.73;;
33987;SDS011;37428;53.580;-1.666;2023-04-28T09:23:22;25.48;;;20.33;;
33987;SDS011;37428;53.580;-1.666;2023-04-28T09:26:24;24.27;;;19.58;;
33987;SDS011;37428;53.580;-1.666;2023-04-28T09:29:26;24.65;;;21.25;;
33987;SDS011;37428;53.580;-1.666;2023-04-28T09:32:30;27.33;;;21.50;;
33987;SDS011;37428;53.580;-1.666;2023-04-28T09:35:39;26.13;;;21.20;;
33987;SDS011;37428;53.580;-1.666;2023-04-28T09:38:42;29.55;;;22.67;;
33987;SDS011;37428;53.580;-1.666;2023-04-28T09:41:45;27.25;;;22.38;;
33987;SDS011;37428;53.580;-1.666;2023-04-28T09:44:51;28.85;;;22.67;;
33987;SDS011;37428;53.580;-1.666;2023-04-28T09:47:56;25.95;;;21.40;;
33987;SDS011;37428;53.580;-1.666;2023-04-28T09:51:10;17.98;;;16.15;;
33987;SDS011;37428;53.580;-1.666;2023-04-28T09:54:20;16.70;;;15.00;;
33987;SDS011;37428;53.580;-1.666;2023-04-28T09:57:23;16.73;;;14.90;;
33987;SDS011;37428;53.580;-1.666;2023-04-28T10:00:26;16.08;;;14.40;;
33987;SDS011;37428;53.580;-1.666;2023-04-28T10:03:30;17.17;;;15.05;;
33987;SDS011;37428;53.580;-1.666;2023-04-28T10:06:33;14.73;;;13.32;;
33987;SDS011;37428;53.580;-1.666;2023-04-28T10:09:36;15.85;;;13.55;;
33987;SDS011;37428;53.580;-1.666;2023-04-28T10:12:39;14.95;;;11.65;;
33987;SDS011;37428;53.580;-1.666;2023-04-28T10:15:41;13.60;;;12.30;;
33987;SDS011;37428;53.580;-1.666;2023-04-28T10:21:51;16.08;;;12.38;;
33987;SDS011;37428;53.580;-1.666;2023-04-28T10:25:16;14.93;;;13.43;;
33987;SDS011;37428;53.580;-1.666;2023-04-28T10:28:26;13.98;;;12.65;;
33987;SDS011;37428;53.580;-1.666;2023-04-28T10:31:28;14.02;;;12.20;;
33987;SDS011;37428;53.580;-1.666;2023-04-28T10:34:32;17.08;;;12.52;;
33987;SDS011;37428;53.580;-1.666;2023-04-28T10:41:04;12.30;;;11.00;;
33987;SDS011;37428;53.580;-1.666;2023-04-28T10:44:41;12.97;;;11.67;;
33987;SDS011;37428;53.580;-1.666;2023-04-28T10:47:59;11.73;;;10.60;;
33987;SDS011;37428;53.580;-1.666;2023-04-28T10:51:22;11.55;;;9.93;;
33987;SDS011;37428;53.580;-1.666;2023-04-28T10:54:31;11.98;;;10.85;;
33987;SDS011;37428;53.580;-1.666;2023-04-28T10:57:33;11.07;;;10.02;;
33987;SDS011;37428;53.580;-1.666;2023-04-28T11:03:41;8.07;;;7.38;;
33987;SDS011;37428;53.580;-1.666;2023-04-28T11:10:12;7.68;;;6.50;;
33987;SDS011;37428;53.580;-1.666;2023-04-28T11:13:24;6.70;;;6.10;;
33987;SDS011;37428;53.580;-1.666;2023-04-28T11:16:26;8.15;;;6.13;;
33987;SDS011;37428;53.580;-1.666;2023-04-28T11:19:28;5.95;;;5.50;;
33987;SDS011;37428;53.580;-1.666;2023-04-28T11:22:33;7.68;;;6.97;;
33987;SDS011;37428;53.580;-1.666;2023-04-28T11:28:56;7.65;;;6.90;;
33987;SDS011;37428;53.580;-1.666;2023-04-28T11:31:58;9.43;;;7.35;;
33987;SDS011;37428;53.580;-1.666;2023-04-28T11:35:01;8.75;;;7.85;;
33987;SDS011;37428;53.580;-1.666;2023-04-28T11:38:09;10.70;;;9.60;;
33987;SDS011;37428;53.580;-1.666;2023-04-28T11:41:11;7.75;;;6.95;;
33987;SDS011;37428;53.580;-1.666;2023-04-28T11:44:14;7.10;;;6.50;;
33987;SDS011;37428;53.580;-1.666;2023-04-28T11:47:27;8.15;;;7.45;;
33987;SDS011;37428;53.580;-1.666;2023-04-28T11:53:43;6.72;;;6.05;;
33987;SDS011;37428;53.580;-1.666;2023-04-28T11:56:45;8.07;;;7.13;;
33987;SDS011;37428;53.580;-1.666;2023-04-28T11:59:48;10.60;;;6.97;;
33987;SDS011;37428;53.580;-1.666;2023-04-28T12:02:50;8.82;;;7.20;;
33987;SDS011;37428;53.580;-1.666;2023-04-28T12:05:52;8.27;;;7.40;;
33987;SDS011;37428;53.580;-1.666;2023-04-28T12:08:56;11.07;;;7.80;;
33987;SDS011;37428;53.580;-1.666;2023-04-28T12:12:03;7.47;;;6.82;;
33987;SDS011;37428;53.580;-1.666;2023-04-28T12:15:08;11.68;;;9.00;;
33987;SDS011;37428;53.580;-1.666;2023-04-28T12:18:10;9.35;;;8.15;;
33987;SDS011;37428;53.580;-1.666;2023-04-28T12:21:19;10.93;;;8.73;;
33987;SDS011;37428;53.580;-1.666;2023-04-28T12:24:23;9.73;;;8.82;;
33987;SDS011;37428;53.580;-1.666;2023-04-28T12:27:26;11.05;;;9.95;;
33987;SDS011;37428;53.580;-1.666;2023-04-28T12:30:28;11.52;;;9.02;;
33987;SDS011;37428;53.580;-1.666;2023-04-28T12:33:31;11.63;;;8.90;;
33987;SDS011;37428;53.580;-1.666;2023-04-28T12:36:36;11.75;;;9.52;;
33987;SDS011;37428;53.580;-1.666;2023-04-28T12:39:40;10.20;;;9.20;;
33987;SDS011;37428;53.580;-1.666;2023-04-28T12:42:42;8.68;;;7.82;;
33987;SDS011;37428;53.580;-1.666;2023-04-28T12:45:44;10.43;;;8.23;;
33987;SDS011;37428;53.580;-1.666;2023-04-28T12:48:47;9.38;;;8.13;;
33987;SDS011;37428;53.580;-1.666;2023-04-28T12:51:49;9.23;;;7.97;;
33987;SDS011;37428;53.580;-1.666;2023-04-28T12:54:52;8.25;;;7.47;;
33987;SDS011;37428;53.580;-1.666;2023-04-28T12:57:54;8.98;;;8.18;;
33987;SDS011;37428;53.580;-1.666;2023-04-28T13:00:56;8.30;;;7.55;;
33987;SDS011;37428;53.580;-1.666;2023-04-28T13:03:59;8.32;;;7.63;;
33987;SDS011;37428;53.580;-1.666;2023-04-28T13:07:01;8.07;;;7.35;;
33987;SDS011;37428;53.580;-1.666;2023-04-28T13:10:08;7.18;;;6.47;;
33987;SDS011;37428;53.580;-1.666;2023-04-28T13:13:12;7.55;;;6.85;;
33987;SDS011;37428;53.580;-1.666;2023-04-28T13:16:14;6.03;;;5.53;;
33987;SDS011;37428;53.580;-1.666;2023-04-28T13:19:16;6.45;;;5.18;;
33987;SDS011;37428;53.580;-1.666;2023-04-28T13:22:18;5.88;;;5.40;;
33987;SDS011;37428;53.580;-1.666;2023-04-28T13:25:22;4.43;;;4.13;;
33987;SDS011;37428;53.580;-1.666;2023-04-28T13:28:24;13.50;;;5.93;;
33987;SDS011;37428;53.580;-1.666;2023-04-28T13:31:26;5.75;;;4.82;;
33987;SDS011;37428;53.580;-1.666;2023-04-28T13:34:28;4.70;;;4.30;;
33987;SDS011;37428;53.580;-1.666;2023-04-28T13:37:31;8.43;;;5.00;;
33987;SDS011;37428;53.580;-1.666;2023-04-28T13:40:34;5.78;;;5.15;;
33987;SDS011;37428;53.580;-1.666;2023-04-28T13:43:36;9.63;;;4.78;;
33987;SDS011;37428;53.580;-1.666;2023-04-28T13:46:38;6.82;;;4.90;;
33987;SDS011;37428;53.580;-1.666;2023-04-28T13:49:40;7.10;;;4.78;;
33987;SDS011;37428;53.580;-1.666;2023-04-28T13:52:42;6.88;;;4.25;;
33987;SDS011;37428;53.580;-1.666;2023-04-28T13:55:46;8.20;;;6.28;;
33987;SDS011;37428;53.580;-1.666;2023-04-28T13:58:50;9.32;;;5.47;;
33987;SDS011;37428;53.580;-1.666;2023-04-28T14:04:54;5.80;;;4.03;;
33987;SDS011;37428;53.580;-1.666;2023-04-28T14:07:56;4.07;;;3.67;;
33987;SDS011;37428;53.580;-1.666;2023-04-28T14:11:02;4.20;;;3.58;;
33987;SDS011;37428;53.580;-1.666;2023-04-28T14:14:04;5.00;;;3.60;;
33987;SDS011;37428;53.580;-1.666;2023-04-28T14:17:06;4.53;;;3.42;;
33987;SDS011;37428;53.580;-1.666;2023-04-28T14:20:08;11.32;;;6.03;;
33987;SDS011;37428;53.580;-1.666;2023-04-28T14:26:15;3.58;;;3.28;;
33987;SDS011;37428;53.580;-1.666;2023-04-28T14:29:18;3.70;;;3.38;;
33987;SDS011;37428;53.580;-1.666;2023-04-28T14:32:20;3.95;;;3.65;;
33987;SDS011;37428;53.580;-1.666;2023-04-28T14:35:22;4.20;;;3.90;;
33987;SDS011;37428;53.580;-1.666;2023-04-28T14:38:24;4.88;;;3.33;;
33987;SDS011;37428;53.580;-1.666;2023-04-28T14:41:29;3.15;;;2.95;;
33987;SDS011;37428;53.580;-1.666;2023-04-28T14:44:31;3.47;;;3.17;;
33987;SDS011;37428;53.580;-1.666;2023-04-28T14:47:33;3.83;;;3.53;;
33987;SDS011;37428;53.580;-1.666;2023-04-28T14:50:36;3.85;;;3.55;;
33987;SDS011;37428;53.580;-1.666;2023-04-28T14:53:39;4.22;;;3.92;;
33987;SDS011;37428;53.580;-1.666;2023-04-28T14:56:43;3.97;;;3.67;;
33987;SDS011;37428;53.580;-1.666;2023-04-28T14:59:48;5.18;;;3.83;;
33987;SDS011;37428;53.580;-1.666;2023-04-28T15:02:51;4.50;;;3.95;;
33987;SDS011;37428;53.580;-1.666;2023-04-28T15:05:53;3.85;;;3.55;;
33987;SDS011;37428;53.580;-1.666;2023-04-28T15:08:55;4.10;;;3.83;;
33987;SDS011;37428;53.580;-1.666;2023-04-28T15:11:58;7.20;;;3.50;;
33987;SDS011;37428;53.580;-1.666;2023-04-28T15:15:01;4.22;;;3.42;;
33987;SDS011;37428;53.580;-1.666;2023-04-28T15:18:03;3.97;;;3.67;;
33987;SDS011;37428;53.580;-1.666;2023-04-28T15:21:05;3.95;;;3.50;;
33987;SDS011;37428;53.580;-1.666;2023-04-28T15:24:07;5.25;;;3.72;;
33987;SDS011;37428;53.580;-1.666;2023-04-28T15:27:11;4.60;;;3.65;;
33987;SDS011;37428;53.580;-1.666;2023-04-28T15:30:13;3.15;;;2.85;;
33987;SDS011;37428;53.580;-1.666;2023-04-28T15:33:15;3.25;;;3.03;;
33987;SDS011;37428;53.580;-1.666;2023-04-28T15:36:17;4.50;;;3.05;;
33987;SDS011;37428;53.580;-1.666;2023-04-28T15:39:20;3.28;;;2.97;;
33987;SDS011;37428;53.580;-1.666;2023-04-28T15:42:24;3.90;;;3.55;;
33987;SDS011;37428;53.580;-1.666;2023-04-28T15:45:27;4.78;;;4.28;;
33987;SDS011;37428;53.580;-1.666;2023-04-28T15:48:29;6.32;;;4.22;;
33987;SDS011;37428;53.580;-1.666;2023-04-28T15:51:31;4.68;;;3.80;;
33987;SDS011;37428;53.580;-1.666;2023-04-28T15:54:33;4.72;;;3.60;;
33987;SDS011;37428;53.580;-1.666;2023-04-28T15:57:37;3.42;;;3.08;;
33987;SDS011;37428;53.580;-1.666;2023-04-28T16:00:41;3.10;;;2.83;;
33987;SDS011;37428;53.580;-1.666;2023-04-28T16:03:44;5.38;;;3.50;;
33987;SDS011;37428;53.580;-1.666;2023-04-28T16:06:46;5.07;;;3.95;;
33987;SDS011;37428;53.580;-1.666;2023-04-28T16:09:51;4.03;;;2.97;;
33987;SDS011;37428;53.580;-1.666;2023-04-28T16:12:55;2.42;;;2.22;;
33987;SDS011;37428;53.580;-1.666;2023-04-28T16:15:58;2.53;;;2.33;;
33987;SDS011;37428;53.580;-1.666;2023-04-28T16:19:00;2.50;;;2.30;;
33987;SDS011;37428;53.580;-1.666;2023-04-28T16:22:02;2.55;;;2.30;;
33987;SDS011;37428;53.580;-1.666;2023-04-28T16:25:04;2.50;;;2.30;;
33987;SDS011;37428;53.580;-1.666;2023-04-28T16:28:09;2.65;;;1.88;;
33987;SDS011;37428;53.580;-1.666;2023-04-28T16:31:11;2.50;;;2.30;;
33987;SDS011;37428;53.580;-1.666;2023-04-28T16:34:13;2.30;;;2.10;;
33987;SDS011;37428;53.580;-1.666;2023-04-28T16:37:16;3.70;;;2.15;;
33987;SDS011;37428;53.580;-1.666;2023-04-28T16:40:18;3.60;;;2.05;;
33987;SDS011;37428;53.580;-1.666;2023-04-28T16:43:22;3.97;;;1.98;;
33987;SDS011;37428;53.580;-1.666;2023-04-28T16:46:24;2.13;;;2.03;;
33987;SDS011;37428;53.580;-1.666;2023-04-28T16:49:26;4.72;;;2.25;;
33987;SDS011;37428;53.580;-1.666;2023-04-28T16:52:29;2.60;;;2.40;;
33987;SDS011;37428;53.580;-1.666;2023-04-28T16:55:33;7.32;;;2.20;;
33987;SDS011;37428;53.580;-1.666;2023-04-28T16:58:36;2.17;;;2.00;;
33987;SDS011;37428;53.580;-1.666;2023-04-28T17:01:39;1.85;;;1.75;;
33987;SDS011;37428;53.580;-1.666;2023-04-28T17:04:41;2.20;;;1.90;;
33987;SDS011;37428;53.580;-1.666;2023-04-28T17:07:43;1.92;;;1.73;;
33987;SDS011;37428;53.580;-1.666;2023-04-28T17:10:45;1.67;;;1.58;;
33987;SDS011;37428;53.580;-1.666;2023-04-28T17:13:49;2.17;;;1.50;;
33987;SDS011;37428;53.580;-1.666;2023-04-28T17:16:51;1.65;;;1.08;;
33987;SDS011;37428;53.580;-1.666;2023-04-28T17:19:53;3.50;;;1.63;;
33987;SDS011;37428;53.580;-1.666;2023-04-28T17:22:57;1.60;;;1.50;;
33987;SDS011;37428;53.580;-1.666;2023-04-28T17:25:59;1.55;;;1.45;;
33987;SDS011;37428;53.580;-1.666;2023-04-28T17:29:04;1.55;;;1.30;;
33987;SDS011;37428;53.580;-1.666;2023-04-28T17:32:06;5.63;;;1.80;;
33987;SDS011;37428;53.580;-1.666;2023-04-28T17:35:09;3.00;;;1.80;;
33987;SDS011;37428;53.580;-1.666;2023-04-28T17:38:11;2.10;;;2.00;;
33987;SDS011;37428;53.580;-1.666;2023-04-28T17:41:13;2.00;;;1.90;;
33987;SDS011;37428;53.580;-1.666;2023-04-28T17:47:20;1.90;;;1.80;;
33987;SDS011;37428;53.580;-1.666;2023-04-28T17:50:22;3.28;;;2.00;;
33987;SDS011;37428;53.580;-1.666;2023-04-28T17:53:24;2.33;;;2.20;;
33987;SDS011;37428;53.580;-1.666;2023-04-28T17:56:27;2.55;;;2.33;;
33987;SDS011;37428;53.580;-1.666;2023-04-28T17:59:31;2.53;;;2.33;;
33987;SDS011;37428;53.580;-1.666;2023-04-28T18:02:33;3.08;;;2.88;;
33987;SDS011;37428;53.580;-1.666;2023-04-28T18:05:35;4.13;;;3.83;;
33987;SDS011;37428;53.580;-1.666;2023-04-28T18:08:38;4.53;;;3.72;;
33987;SDS011;37428;53.580;-1.666;2023-04-28T18:11:40;4.53;;;4.22;;
33987;SDS011;37428;53.580;-1.666;2023-04-28T18:14:43;5.05;;;3.95;;
33987;SDS011;37428;53.580;-1.666;2023-04-28T18:17:45;4.63;;;4.22;;
33987;SDS011;37428;53.580;-1.666;2023-04-28T18:20:48;4.85;;;4.55;;
33987;SDS011;37428;53.580;-1.666;2023-04-28T18:23:56;4.38;;;3.97;;
33987;SDS011;37428;53.580;-1.666;2023-04-28T18:26:59;5.13;;;4.72;;